createdAt,value
2023-03-06T00:00:58.614Z,17.80
2023-03-06T00:03:26.645Z,17.88
2023-03-06T00:05:53.845Z,17.47
2023-03-06T00:08:20.631Z,17.88
2023-03-06T00:10:47.866Z,17.90
2023-03-06T00:13:16.170Z,16.73
2023-03-06T00:15:44.886Z,17.10
2023-03-06T00:18:13.845Z,16.98
2023-03-06T00:20:42.570Z,17.40
2023-03-06T00:23:10.518Z,17.10
2023-03-06T00:25:37.037Z,16.75
2023-03-06T00:28:05.719Z,17.30
2023-03-06T00:30:32.302Z,17.13
2023-03-06T00:32:59.290Z,16.63
2023-03-06T00:35:26.791Z,18.40
2023-03-06T00:37:53.389Z,17.93
2023-03-06T00:40:21.447Z,18.80
2023-03-06T00:42:48.383Z,18.27
2023-03-06T00:45:15.130Z,19.42
2023-03-06T00:47:41.958Z,16.77
2023-03-06T00:50:09.791Z,17.67
2023-03-06T00:52:36.263Z,18.20
2023-03-06T00:55:03.387Z,17.20
2023-03-06T00:57:29.843Z,17.30
2023-03-06T01:00:03.680Z,17.30
2023-03-06T01:02:30.180Z,17.00
2023-03-06T01:04:56.987Z,17.30
2023-03-06T01:07:24.968Z,18.30
2023-03-06T01:09:53.032Z,17.08
2023-03-06T01:12:23.639Z,17.10
2023-03-06T01:14:52.644Z,16.60
2023-03-06T01:17:19.018Z,15.30
2023-03-06T01:19:45.429Z,15.75
2023-03-06T01:22:12.253Z,15.70
2023-03-06T01:24:39.994Z,17.07
2023-03-06T01:27:09.317Z,16.87
2023-03-06T01:29:35.761Z,16.75
2023-03-06T01:32:02.395Z,16.27
2023-03-06T01:34:30.115Z,17.20
2023-03-06T01:36:56.492Z,17.35
2023-03-06T01:39:22.900Z,17.85
2023-03-06T01:41:49.628Z,17.23
2023-03-06T01:44:16.056Z,16.90
2023-03-06T01:46:44.540Z,15.40
2023-03-06T01:49:28.379Z,15.43
2023-03-06T01:52:03.479Z,15.47
2023-03-06T01:54:34.374Z,16.33
2023-03-06T01:59:32.598Z,15.53
2023-03-06T02:02:01.793Z,17.40
2023-03-06T02:04:29.705Z,16.70
2023-03-06T02:06:58.623Z,17.67
2023-03-06T02:09:26.624Z,16.83
2023-03-06T02:11:53.057Z,17.70
2023-03-06T02:14:19.762Z,17.67
2023-03-06T02:16:46.683Z,18.53
2023-03-06T02:19:27.496Z,16.40
2023-03-06T02:21:53.986Z,17.38
2023-03-06T02:24:29.716Z,17.13
2023-03-06T02:26:57.247Z,15.97
2023-03-06T02:29:27.520Z,17.37
2023-03-06T02:31:54.179Z,16.90
2023-03-06T02:34:20.982Z,17.47
2023-03-06T02:37:05.005Z,16.47
2023-03-06T02:39:33.930Z,17.60
2023-03-06T02:42:00.539Z,16.50
2023-03-06T02:44:27.800Z,16.50
2023-03-06T02:46:54.443Z,17.20
2023-03-06T02:49:21.222Z,16.97
2023-03-06T02:51:47.998Z,17.13
2023-03-06T02:54:14.733Z,17.13
2023-03-06T02:56:41.198Z,16.90
2023-03-06T02:59:07.666Z,17.03
2023-03-06T03:01:34.231Z,18.57
2023-03-06T03:04:00.954Z,18.17
2023-03-06T03:06:27.451Z,17.10
2023-03-06T03:08:54.797Z,17.07
2023-03-06T03:11:21.274Z,17.50
2023-03-06T03:13:47.945Z,18.17
2023-03-06T03:16:15.707Z,17.63
2023-03-06T03:18:42.885Z,17.03
2023-03-06T03:21:14.324Z,16.67
2023-03-06T03:23:40.957Z,16.17
2023-03-06T03:26:10.024Z,15.90
2023-03-06T03:28:36.981Z,17.60
2023-03-06T03:31:08.729Z,17.63
2023-03-06T03:33:35.531Z,17.17
2023-03-06T03:36:05.557Z,17.90
2023-03-06T03:38:32.224Z,17.13
2023-03-06T03:41:00.526Z,17.87
2023-03-06T03:43:27.081Z,18.10
2023-03-06T03:45:54.045Z,19.33
2023-03-06T03:48:20.892Z,22.27
2023-03-06T03:50:47.323Z,20.17
2023-03-06T03:53:13.718Z,17.80
2023-03-06T03:55:40.198Z,19.10
2023-03-06T03:58:06.744Z,17.43
2023-03-06T04:00:33.303Z,16.47
2023-03-06T04:02:59.821Z,18.37
2023-03-06T04:05:26.287Z,17.80
2023-03-06T04:07:52.943Z,19.13
2023-03-06T04:10:19.714Z,17.50
2023-03-06T04:12:46.159Z,18.67
2023-03-06T04:15:12.491Z,19.00
2023-03-06T04:17:39.109Z,18.70
2023-03-06T04:20:06.340Z,16.90
2023-03-06T04:22:32.876Z,16.20
2023-03-06T04:24:59.300Z,16.87
2023-03-06T04:27:25.789Z,17.38
2023-03-06T04:29:52.317Z,18.13
2023-03-06T04:32:21.326Z,16.87
2023-03-06T04:34:48.152Z,18.13
2023-03-06T04:37:20.753Z,16.40
2023-03-06T04:39:47.410Z,17.17
2023-03-06T04:42:14.093Z,17.83
2023-03-06T04:44:40.937Z,18.83
2023-03-06T04:47:07.981Z,19.87
2023-03-06T04:49:34.669Z,19.23
2023-03-06T04:52:01.224Z,20.60
2023-03-06T04:54:27.749Z,18.47
2023-03-06T04:56:54.351Z,19.20
2023-03-06T04:59:20.988Z,19.33
2023-03-06T05:01:47.803Z,20.97
2023-03-06T05:04:14.597Z,20.80
2023-03-06T05:06:41.007Z,19.87
2023-03-06T05:09:07.701Z,20.93
2023-03-06T05:11:34.107Z,19.87
2023-03-06T05:14:00.603Z,20.43
2023-03-06T05:16:27.115Z,20.47
2023-03-06T05:18:53.649Z,21.17
2023-03-06T05:21:20.135Z,19.43
2023-03-06T05:23:46.596Z,20.40
2023-03-06T05:26:14.779Z,20.30
2023-03-06T05:28:41.784Z,19.37
2023-03-06T05:31:09.272Z,18.97
2023-03-06T05:33:36.514Z,19.63
2023-03-06T05:36:03.848Z,20.47
2023-03-06T05:38:30.218Z,22.70
2023-03-06T05:40:56.629Z,21.33
2023-03-06T05:43:23.337Z,19.90
2023-03-06T05:45:49.875Z,19.90
2023-03-06T05:48:16.319Z,21.17
2023-03-06T05:50:43.322Z,22.37
2023-03-06T05:53:10.709Z,19.67
2023-03-06T05:55:37.502Z,20.77
2023-03-06T05:58:03.998Z,19.37
2023-03-06T06:00:30.502Z,19.60
2023-03-06T06:03:00.544Z,19.97
2023-03-06T06:05:27.106Z,19.90
2023-03-06T06:07:53.741Z,20.83
2023-03-06T06:10:20.171Z,21.07
2023-03-06T06:12:46.631Z,20.00
2023-03-06T06:15:12.997Z,20.73
2023-03-06T06:17:39.368Z,21.17
2023-03-06T06:20:06.518Z,19.80
2023-03-06T06:22:35.837Z,21.77
2023-03-06T06:25:02.319Z,20.50
2023-03-06T06:27:28.927Z,20.07
2023-03-06T06:29:55.426Z,18.87
2023-03-06T06:32:21.977Z,20.03
2023-03-06T06:34:48.375Z,21.20
2023-03-06T06:37:15.121Z,22.30
2023-03-06T06:39:41.878Z,20.73
2023-03-06T06:42:29.082Z,21.07
2023-03-06T06:44:56.011Z,22.43
2023-03-06T06:47:24.850Z,22.00
2023-03-06T06:49:53.752Z,19.67
2023-03-06T06:52:20.610Z,21.50
2023-03-06T06:54:47.795Z,19.10
2023-03-06T06:57:14.811Z,18.93
2023-03-06T06:59:41.457Z,20.00
2023-03-06T07:02:08.199Z,19.70
2023-03-06T07:04:34.678Z,18.77
2023-03-06T07:07:01.010Z,20.43
2023-03-06T07:09:27.664Z,20.37
2023-03-06T07:11:54.013Z,19.13
2023-03-06T07:14:20.526Z,20.00
2023-03-06T07:16:47.125Z,19.73
2023-03-06T07:19:13.862Z,18.93
2023-03-06T07:21:40.403Z,19.47
2023-03-06T07:24:07.174Z,20.67
2023-03-06T07:26:34.868Z,20.30
2023-03-06T07:29:02.142Z,21.23
2023-03-06T07:31:28.607Z,19.80
2023-03-06T07:33:55.922Z,22.23
2023-03-06T07:36:24.028Z,28.67
2023-03-06T07:38:50.505Z,22.23
2023-03-06T07:41:16.854Z,20.35
2023-03-06T07:43:45.356Z,20.70
2023-03-06T07:46:13.381Z,18.10
2023-03-06T07:48:40.862Z,19.80
2023-03-06T07:51:21.795Z,21.63
2023-03-06T07:56:16.217Z,18.20
2023-03-06T07:58:44.903Z,18.95
2023-03-06T08:01:15.037Z,17.70
2023-03-06T08:03:41.927Z,14.40
2023-03-06T08:06:17.734Z,17.27
2023-03-06T08:08:47.432Z,18.40
2023-03-06T08:11:15.791Z,18.90
2023-03-06T08:13:43.165Z,17.13
2023-03-06T08:16:10.780Z,16.47
2023-03-06T08:18:37.892Z,17.52
2023-03-06T08:21:06.414Z,18.37
2023-03-06T08:23:34.078Z,18.00
2023-03-06T08:26:03.336Z,17.70
2023-03-06T08:28:29.820Z,17.85
2023-03-06T08:30:57.580Z,19.35
2023-03-06T08:33:24.714Z,16.42
2023-03-06T08:35:52.760Z,18.35
2023-03-06T08:38:19.686Z,18.20
2023-03-06T08:40:46.142Z,17.55
2023-03-06T08:43:14.175Z,17.55
2023-03-06T08:45:41.129Z,17.80
2023-03-06T08:48:07.793Z,19.00
2023-03-06T08:50:34.215Z,18.35
2023-03-06T08:53:00.802Z,16.95
2023-03-06T08:55:27.736Z,17.75
2023-03-06T08:57:54.436Z,17.85
2023-03-06T09:00:21.245Z,16.95
2023-03-06T09:02:47.751Z,15.75
2023-03-06T09:05:14.175Z,15.25
2023-03-06T09:07:41.139Z,14.43
2023-03-06T09:10:08.784Z,12.57
2023-03-06T09:12:48.887Z,12.82
2023-03-06T09:17:44.089Z,12.25
2023-03-06T09:20:11.924Z,11.15
2023-03-06T09:22:38.334Z,10.93
2023-03-06T09:25:05.594Z,11.18
2023-03-06T09:27:32.228Z,9.98
2023-03-06T09:29:58.650Z,9.20
2023-03-06T09:32:26.005Z,10.73
2023-03-06T09:34:52.409Z,9.43
2023-03-06T09:37:19.167Z,9.68
2023-03-06T09:39:45.578Z,9.70
2023-03-06T09:42:21.786Z,13.40
2023-03-06T09:44:52.718Z,10.15
2023-03-06T09:50:25.418Z,8.35
2023-03-06T09:53:16.960Z,8.55
2023-03-06T09:55:48.913Z,9.38
2023-03-06T09:58:24.584Z,7.95
2023-03-06T10:01:09.683Z,8.60
2023-03-06T10:03:52.526Z,8.75
2023-03-06T10:06:33.383Z,8.50
2023-03-06T10:09:18.598Z,9.48
2023-03-06T10:11:53.367Z,8.27
2023-03-06T10:14:33.640Z,7.75
2023-03-06T10:17:01.841Z,7.45
2023-03-06T10:19:34.493Z,8.80
2023-03-06T10:22:28.726Z,8.27
2023-03-06T10:25:00.534Z,8.90
2023-03-06T10:27:46.771Z,7.38
2023-03-06T10:30:38.478Z,7.43
2023-03-06T10:33:24.971Z,6.90
2023-03-06T10:35:56.932Z,7.28
2023-03-06T10:38:33.568Z,8.75
2023-03-06T10:41:11.874Z,7.20
2023-03-06T10:43:44.162Z,6.60
2023-03-06T10:46:27.577Z,6.93
2023-03-06T10:49:00.127Z,6.93
2023-03-06T10:51:27.733Z,9.00
2023-03-06T10:54:01.512Z,7.80
2023-03-06T10:56:35.199Z,10.50
2023-03-06T10:59:18.557Z,6.93
2023-03-06T11:01:48.823Z,8.85
2023-03-06T11:04:31.658Z,7.45
2023-03-06T11:07:08.090Z,7.50
2023-03-06T11:09:35.515Z,8.30
2023-03-06T11:12:31.400Z,7.35
2023-03-06T11:15:07.137Z,5.82
2023-03-06T11:17:52.375Z,7.90
2023-03-06T11:20:23.863Z,8.00
2023-03-06T11:23:37.453Z,6.00
2023-03-06T11:26:24.393Z,6.28
2023-03-06T11:28:57.087Z,8.13
2023-03-06T11:31:35.228Z,7.57
2023-03-06T11:34:31.649Z,7.97
2023-03-06T11:37:07.335Z,8.35
2023-03-06T11:39:34.178Z,6.60
2023-03-06T11:42:37.208Z,7.28
2023-03-06T11:45:19.112Z,7.53
2023-03-06T11:48:18.120Z,7.82
2023-03-06T11:50:48.070Z,7.55
2023-03-06T11:53:31.691Z,7.88
2023-03-06T11:56:20.926Z,6.50
2023-03-06T11:59:08.001Z,7.13
2023-03-06T12:01:40.614Z,7.45
2023-03-06T12:04:19.092Z,8.15
2023-03-06T12:07:00.663Z,8.43
2023-03-06T12:09:42.481Z,8.18
2023-03-06T12:12:18.450Z,6.50
2023-03-06T12:14:54.978Z,6.90
2023-03-06T12:17:56.943Z,7.03
2023-03-06T12:20:40.256Z,8.15
2023-03-06T12:23:28.592Z,8.18
2023-03-06T12:26:03.007Z,8.40
2023-03-06T12:28:51.506Z,7.75
2023-03-06T12:31:30.970Z,7.43
2023-03-06T12:34:06.024Z,7.43
2023-03-06T12:36:48.683Z,7.07
2023-03-06T12:39:52.823Z,6.05
2023-03-06T12:42:39.746Z,6.57
2023-03-06T12:45:21.294Z,6.75
2023-03-06T12:47:52.740Z,6.70
2023-03-06T12:50:24.103Z,7.03
2023-03-06T12:52:53.672Z,6.72
2023-03-06T12:55:24.967Z,6.72
2023-03-06T12:57:52.571Z,7.15
2023-03-06T13:00:34.374Z,6.53
2023-03-06T13:03:17.992Z,7.43
2023-03-06T13:05:47.401Z,7.63
2023-03-06T13:08:43.218Z,8.05
2023-03-06T13:11:26.597Z,8.77
2023-03-06T13:13:54.977Z,8.02
2023-03-06T13:16:28.940Z,7.30
2023-03-06T13:19:19.285Z,6.93
2023-03-06T13:21:54.732Z,6.75
2023-03-06T13:24:26.892Z,7.03
2023-03-06T13:26:55.389Z,6.47
2023-03-06T13:29:37.035Z,8.85
2023-03-06T13:32:04.948Z,8.88
2023-03-06T13:34:31.332Z,6.80
2023-03-06T13:37:17.039Z,7.00
2023-03-06T13:39:52.433Z,7.22
2023-03-06T13:42:36.520Z,6.88
2023-03-06T13:45:16.390Z,7.10
2023-03-06T13:48:10.986Z,7.05
2023-03-06T13:50:39.892Z,6.88
2023-03-06T13:55:54.381Z,6.25
2023-03-06T13:58:45.718Z,7.43
2023-03-06T14:01:51.481Z,6.43
2023-03-06T14:04:36.551Z,7.40
2023-03-06T14:07:05.610Z,6.05
2023-03-06T14:09:37.449Z,7.57
2023-03-06T14:12:17.098Z,7.40
2023-03-06T14:14:49.761Z,20.35
2023-03-06T14:17:31.815Z,7.32
2023-03-06T14:20:05.422Z,7.63
2023-03-06T14:22:31.861Z,6.18
2023-03-06T14:25:27.377Z,6.68
2023-03-06T14:28:02.899Z,6.88
2023-03-06T14:30:32.325Z,7.88
2023-03-06T14:32:59.124Z,7.25
2023-03-06T14:35:32.280Z,7.82
2023-03-06T14:38:04.398Z,7.07
2023-03-06T14:40:34.054Z,6.65
2023-03-06T14:43:37.195Z,7.53
2023-03-06T14:46:05.523Z,6.55
2023-03-06T14:48:44.761Z,6.18
2023-03-06T14:51:21.712Z,8.00
2023-03-06T14:53:50.368Z,7.65
2023-03-06T14:56:25.923Z,6.55
2023-03-06T14:58:58.890Z,6.95
2023-03-06T15:01:42.265Z,8.02
2023-03-06T15:04:23.463Z,5.93
2023-03-06T15:06:50.536Z,6.18
2023-03-06T15:09:19.594Z,6.70
2023-03-06T15:11:54.855Z,9.05
2023-03-06T15:14:29.511Z,8.40
2023-03-06T15:16:55.868Z,7.32
2023-03-06T15:19:23.438Z,7.57
2023-03-06T15:21:52.057Z,8.32
2023-03-06T15:24:35.379Z,9.48
2023-03-06T15:27:05.454Z,7.30
2023-03-06T15:29:32.862Z,6.65
2023-03-06T15:32:29.619Z,6.63
2023-03-06T15:35:24.799Z,7.10
2023-03-06T15:37:52.156Z,7.47
2023-03-06T15:40:20.379Z,7.28
2023-03-06T15:42:47.185Z,7.10
2023-03-06T15:45:25.418Z,6.50
2023-03-06T15:47:54.076Z,7.25
2023-03-06T15:50:27.186Z,6.70
2023-03-06T15:52:54.151Z,7.93
2023-03-06T15:55:23.977Z,7.85
2023-03-06T15:58:00.573Z,7.60
2023-03-06T16:00:33.221Z,6.72
2023-03-06T16:03:00.631Z,6.93
2023-03-06T16:05:27.864Z,7.65
2023-03-06T16:07:54.791Z,7.30
2023-03-06T16:10:27.546Z,6.72
2023-03-06T16:13:01.386Z,7.03
2023-03-06T16:15:30.642Z,8.00
2023-03-06T16:17:57.750Z,7.25
2023-03-06T16:20:29.155Z,7.18
2023-03-06T16:22:56.661Z,7.45
2023-03-06T16:25:26.388Z,7.47
2023-03-06T16:27:58.169Z,7.68
2023-03-06T16:30:30.205Z,8.23
2023-03-06T16:32:57.786Z,7.28
2023-03-06T16:35:24.914Z,8.70
2023-03-06T16:37:51.453Z,8.20
2023-03-06T16:40:28.349Z,8.10
2023-03-06T16:42:55.772Z,7.60
2023-03-06T16:45:25.013Z,7.35
2023-03-06T16:47:51.885Z,7.40
2023-03-06T16:50:24.403Z,8.50
2023-03-06T16:52:52.998Z,8.32
2023-03-06T16:55:20.064Z,9.35
2023-03-06T16:57:46.719Z,8.18
2023-03-06T17:00:14.628Z,8.48
2023-03-06T17:02:42.595Z,8.07
2023-03-06T17:05:11.139Z,8.05
2023-03-06T17:07:38.327Z,9.63
2023-03-06T17:10:07.277Z,8.02
2023-03-06T17:12:33.956Z,8.85
2023-03-06T17:15:00.488Z,8.18
2023-03-06T17:17:27.235Z,8.30
2023-03-06T17:19:54.032Z,8.98
2023-03-06T17:22:21.277Z,9.38
2023-03-06T17:24:48.167Z,9.35
2023-03-06T17:27:14.754Z,9.60
2023-03-06T17:29:41.435Z,9.88
2023-03-06T17:32:09.687Z,9.80
2023-03-06T17:34:36.435Z,9.60
2023-03-06T17:37:03.015Z,9.57
2023-03-06T17:39:38.052Z,10.02
2023-03-06T17:42:05.654Z,9.70
2023-03-06T17:44:33.513Z,9.43
2023-03-06T17:47:00.127Z,9.82
2023-03-06T17:49:27.026Z,11.13
2023-03-06T17:51:54.550Z,9.52
2023-03-06T17:54:21.734Z,10.13
2023-03-06T17:56:48.252Z,9.52
2023-03-06T17:59:14.916Z,8.85
2023-03-06T18:01:41.453Z,9.10
2023-03-06T18:04:08.056Z,9.90
2023-03-06T18:06:34.509Z,10.18
2023-03-06T18:09:01.071Z,9.85
2023-03-06T18:11:27.969Z,9.80
2023-03-06T18:13:54.514Z,11.00
2023-03-06T18:16:23.396Z,9.70
2023-03-06T18:18:54.423Z,10.55
2023-03-06T18:21:22.415Z,10.38
2023-03-06T18:23:49.248Z,10.00
2023-03-06T18:26:19.057Z,9.40
2023-03-06T18:28:49.138Z,9.93
2023-03-06T18:31:17.478Z,10.50
2023-03-06T18:33:44.450Z,10.00
2023-03-06T18:36:11.424Z,10.40
2023-03-06T18:38:37.843Z,10.93
2023-03-06T18:41:07.414Z,11.23
2023-03-06T18:43:35.477Z,10.30
2023-03-06T18:46:02.244Z,10.38
2023-03-06T18:48:28.969Z,10.80
2023-03-06T18:50:56.113Z,10.90
2023-03-06T18:53:23.428Z,9.40
2023-03-06T18:55:51.550Z,9.93
2023-03-06T18:58:19.441Z,10.70
2023-03-06T19:00:46.248Z,10.13
2023-03-06T19:03:12.739Z,10.45
2023-03-06T19:05:44.163Z,10.30
2023-03-06T19:08:11.253Z,11.57
2023-03-06T19:10:40.390Z,10.82
2023-03-06T19:13:08.654Z,10.75
2023-03-06T19:15:35.466Z,12.32
2023-03-06T19:18:01.855Z,11.90
2023-03-06T19:20:28.579Z,11.18
2023-03-06T19:22:55.039Z,11.40
2023-03-06T19:25:21.441Z,11.85
2023-03-06T19:27:49.730Z,12.15
2023-03-06T19:30:21.439Z,11.40
2023-03-06T19:32:48.268Z,10.95
2023-03-06T19:35:14.916Z,10.88
2023-03-06T19:37:41.372Z,10.90
2023-03-06T19:40:08.684Z,11.02
2023-03-06T19:42:35.380Z,11.60
2023-03-06T19:45:02.140Z,11.25
2023-03-06T19:47:28.623Z,11.37
2023-03-06T19:49:55.063Z,11.00
2023-03-06T19:52:21.498Z,10.90
2023-03-06T19:54:48.004Z,11.57
2023-03-06T19:57:14.970Z,10.88
2023-03-06T19:59:41.585Z,9.77
2023-03-06T20:02:10.595Z,10.27
2023-03-06T20:04:37.109Z,11.77
2023-03-06T20:07:04.130Z,10.02
2023-03-06T20:09:32.078Z,10.95
2023-03-06T20:11:59.932Z,11.55
2023-03-06T20:14:26.481Z,12.02
2023-03-06T20:16:53.153Z,10.90
2023-03-06T20:19:19.668Z,11.98
2023-03-06T20:21:46.165Z,10.60
2023-03-06T20:24:14.905Z,10.82
2023-03-06T20:26:41.825Z,10.90
2023-03-06T20:29:08.296Z,10.68
2023-03-06T20:31:36.723Z,11.48
2023-03-06T20:34:04.331Z,10.55
2023-03-06T20:36:34.012Z,10.75
2023-03-06T20:39:01.495Z,10.38
2023-03-06T20:41:30.174Z,11.05
2023-03-06T20:43:58.525Z,10.73
2023-03-06T20:46:25.868Z,10.80
2023-03-06T20:48:53.315Z,11.52
2023-03-06T20:51:21.291Z,11.27
2023-03-06T20:53:49.347Z,10.77
2023-03-06T20:56:18.761Z,11.23
2023-03-06T20:58:45.381Z,9.95
2023-03-06T21:01:42.538Z,10.60
2023-03-06T21:04:10.597Z,10.32
2023-03-06T21:06:38.080Z,9.65
2023-03-06T21:09:06.913Z,11.15
2023-03-06T21:11:36.190Z,10.05
2023-03-06T21:14:02.726Z,10.77
2023-03-06T21:16:29.959Z,10.73
2023-03-06T21:18:58.170Z,10.25
2023-03-06T21:21:28.859Z,10.63
2023-03-06T21:23:55.368Z,10.65
2023-03-06T21:26:24.294Z,10.93
2023-03-06T21:28:50.995Z,10.95
2023-03-06T21:31:19.645Z,10.70
2023-03-06T21:33:47.325Z,11.32
2023-03-06T21:36:14.116Z,11.70
2023-03-06T21:38:40.627Z,12.05
2023-03-06T21:41:10.452Z,10.60
2023-03-06T21:43:36.933Z,11.68
2023-03-06T21:46:03.498Z,11.88
2023-03-06T21:48:30.034Z,11.82
2023-03-06T21:51:11.189Z,12.07
2023-03-06T21:53:38.576Z,11.15
2023-03-06T21:56:05.721Z,12.60
2023-03-06T21:58:33.458Z,11.15
2023-03-06T22:01:00.260Z,11.80
2023-03-06T22:03:27.684Z,11.25
2023-03-06T22:05:54.633Z,10.85
2023-03-06T22:08:21.167Z,11.27
2023-03-06T22:10:48.849Z,11.43
2023-03-06T22:13:16.012Z,12.23
2023-03-06T22:15:50.608Z,11.75
2023-03-06T22:18:17.444Z,12.10
2023-03-06T22:20:44.199Z,12.88
2023-03-06T22:23:10.934Z,11.80
2023-03-06T22:25:37.457Z,11.15
2023-03-06T22:28:04.034Z,11.63
2023-03-06T22:30:30.737Z,10.93
2023-03-06T22:32:58.301Z,11.75
2023-03-06T22:35:25.339Z,11.68
2023-03-06T22:37:52.123Z,12.55
2023-03-06T22:40:18.584Z,11.38
2023-03-06T22:42:45.246Z,11.65
2023-03-06T22:45:12.325Z,12.05
2023-03-06T22:47:39.348Z,11.52
2023-03-06T22:50:06.551Z,12.10
2023-03-06T22:52:33.590Z,11.35
2023-03-06T22:55:00.435Z,12.75
2023-03-06T22:57:27.258Z,11.95
2023-03-06T22:59:54.102Z,11.05
2023-03-06T23:02:20.929Z,12.40
2023-03-06T23:04:50.721Z,11.88
2023-03-06T23:07:17.217Z,12.00
2023-03-06T23:09:43.715Z,11.20
2023-03-06T23:12:10.154Z,11.32
2023-03-06T23:14:37.234Z,11.43
2023-03-06T23:17:04.136Z,10.98
2023-03-06T23:19:30.702Z,10.18
2023-03-06T23:21:57.511Z,11.98
2023-03-06T23:24:24.266Z,10.68
2023-03-06T23:26:51.469Z,11.15
2023-03-06T23:29:17.945Z,11.73
2023-03-06T23:31:44.425Z,11.02
2023-03-06T23:34:11.008Z,12.20
2023-03-06T23:36:37.804Z,11.60
2023-03-06T23:39:04.310Z,10.68
2023-03-06T23:41:31.148Z,11.45
2023-03-06T23:43:58.726Z,11.32
2023-03-06T23:46:25.807Z,10.90
2023-03-06T23:48:52.612Z,11.10
2023-03-06T23:51:21.695Z,11.07
2023-03-06T23:53:56.242Z,11.15
2023-03-06T23:56:24.451Z,10.88
2023-03-06T23:58:51.325Z,11.25
